Time;durP1;ratioP1;P1;durP2;ratioP2;P2;SDS_P1;SDS_P2;PMS_P1;PMS_P2;Temp;Humidity;BMP_temperature;BMP_pressure;BME280_temperature;BME280_humidity;BME280_pressure;Samples;Min_cycle;Max_cycle;Signal;HPM_P1;HPM_P2
2024/01/13 00:00:57;;;;;;;;;;;;;;;;;;5129942;27;19930;-68
2024/01/13 00:03:23;;;;;;;;;;;;;;;;;;5106062;27;19924;-68
2024/01/13 00:05:49;;;;;;;;;;;;;;;;;;5128455;27;20283;-68
2024/01/13 00:08:15;;;;;;;;;;;;;;;;;;5129748;27;19927;-68
2024/01/13 00:10:41;;;;;;;;;;;;;;;;;;5130571;27;19924;-68
2024/01/13 00:13:08;;;;;;;;;;;;;;;;;;5128072;27;20250;-68
2024/01/13 00:15:34;;;;;;;;;;;;;;;;;;5125996;27;19919;-67
2024/01/13 00:18:00;;;;;;;;;;;;;;;;;;5123093;27;19923;-67
2024/01/13 00:20:25;;;;;;;;;;;;;;;;;;5126149;27;20289;-67
2024/01/13 00:22:51;;;;;;;;;;;;;;;;;;5125940;27;19919;-67
2024/01/13 00:25:17;;;;;;;;;;;;;;;;;;5111171;27;19923;-68
2024/01/13 00:27:43;;;;;;;;;;;;;;;;;;5129601;27;19947;-69
2024/01/13 00:30:09;;;;;;;;;;;;;;;;;;5128177;27;19923;-67
2024/01/13 00:32:35;;;;;;;;;;;;;;;;;;5121709;27;19920;-67
2024/01/13 00:35:02;;;;;;;;;;;;;;;;;;5109493;27;19988;-68
2024/01/13 00:37:28;;;;;;;;;;;;;;;;;;5110867;27;20383;-68
2024/01/13 00:39:53;;;;;;;;;;;;;;;;;;5128309;27;19920;-68
2024/01/13 00:42:19;;;;;;;;;;;;;;;;;;5125569;27;19930;-69
2024/01/13 00:44:45;;;;;;;;;;;;;;;;;;5129462;27;19934;-68
2024/01/13 00:47:11;;;;;;;;;;;;;;;;;;5126298;27;20413;-69
2024/01/13 00:49:37;;;;;;;;;;;;;;;;;;5125354;27;19947;-68
2024/01/13 00:52:03;;;;;;;;;;;;;;;;;;5107122;27;19974;-68
2024/01/13 00:54:29;;;;;;;;;;;;;;;;;;5125430;27;20333;-68
2024/01/13 00:56:55;;;;;;;;;;;;;;;;;;5128353;27;20067;-68
2024/01/13 00:59:21;;;;;;;;;;;;;;;;;;5125140;27;19974;-68
2024/01/13 01:01:47;;;;;;;;;;;;;;;;;;5108279;27;19927;-68
2024/01/13 01:04:13;;;;;;;;;;;;;;;;;;5122547;27;19994;-68
2024/01/13 01:06:39;;;;;;;;;;;;;;;;;;5131006;27;20376;-68
2024/01/13 01:09:06;;;;;;;;;;;;;;;;;;5126353;27;19951;-67
2024/01/13 01:11:32;;;;;;;;;;;;;;;;;;5131738;27;20031;-66
2024/01/13 01:13:58;;;;;;;;;;;;;;;;;;5108215;27;19920;-67
2024/01/13 01:16:24;;;;;;;;;;;;;;;;;;5126158;27;19974;-68
2024/01/13 01:18:52;;;;;;;;;;;;;;;;;;5121780;27;19930;-68
2024/01/13 01:21:18;;;;;;;;;;;;;;;;;;5106472;27;19923;-68
2024/01/13 01:23:43;;;;;;;;;;;;;;;;;;5127475;27;19930;-68
2024/01/13 01:26:09;;;;;;;;;;;;;;;;;;5129992;27;20006;-68
2024/01/13 01:28:35;;;;;;;;;;;;;;;;;;5130903;27;20449;-68
2024/01/13 01:31:01;;;;;;;;;;;;;;;;;;5126178;27;19937;-68
2024/01/13 01:33:27;;;;;;;;;;;;;;;;;;5127964;27;20002;-68
2024/01/13 01:35:53;;;;;;;;;;;;;;;;;;5125486;27;19927;-68
2024/01/13 01:38:19;;;;;;;;;;;;;;;;;;5107699;27;19923;-68
2024/01/13 01:40:45;;;;;;;;;;;;;;;;;;5127937;27;19976;-68
2024/01/13 01:43:11;;;;;;;;;;;;;;;;;;5126168;27;19924;-68
2024/01/13 01:45:37;;;;;;;;;;;;;;;;;;5123449;27;19923;-68
2024/01/13 01:48:03;;;;;;;;;;;;;;;;;;5125026;27;19919;-67
2024/01/13 01:50:29;;;;;;;;;;;;;;;;;;5123832;27;19937;-67
2024/01/13 01:52:55;;;;;;;;;;;;;;;;;;5130468;27;19926;-68
2024/01/13 01:55:20;;;;;;;;;;;;;;;;;;5130559;27;19927;-67
2024/01/13 01:57:46;;;;;;;;;;;;;;;;;;5130206;28;19950;-67
2024/01/13 02:00:12;;;;;;;;;;;;;;;;;;5126320;28;20928;-67
2024/01/13 02:02:38;;;;;;;;;;;;;;;;;;5103661;28;20261;-69
2024/01/13 02:05:04;;;;;;;;;;;;;;;;;;5125195;27;19930;-69
2024/01/13 02:07:30;;;;;;;;;;;;;;;;;;5128321;28;20046;-69
2024/01/13 02:09:56;;;;;;;;;;;;;;;;;;5128756;28;19988;-69
2024/01/13 02:12:22;;;;;;;;;;;;;;;;;;5131064;22;19969;-71
2024/01/13 02:14:48;;;;;;;;;;;;;;;;;;5127317;27;19923;-71
2024/01/13 02:17:14;;;;;;;;;;;;;;;;;;5127834;27;20349;-71
2024/01/13 02:19:40;;;;;;;;;;;;;;;;;;5093486;28;19920;-71
2024/01/13 02:22:06;;;;;;;;;;;;;;;;;;5126520;27;19966;-71
2024/01/13 02:24:32;;;;;;;;;;;;;;;;;;5128222;27;20379;-71
2024/01/13 02:26:58;;;;;;;;;;;;;;;;;;5079594;28;19981;-70
2024/01/13 02:29:23;;;;;;;;;;;;;;;;;;5127227;27;20527;-70
2024/01/13 02:31:49;;;;;;;;;;;;;;;;;;5139224;27;19923;-71
2024/01/13 02:34:15;;;;;;;;;;;;;;;;;;5129493;27;19923;-71
2024/01/13 02:36:41;;;;;;;;;;;;;;;;;;5120883;27;19975;-70
2024/01/13 02:39:07;;;;;;;;;;;;;;;;;;5145613;27;19979;-70
2024/01/13 02:41:33;;;;;;;;;;;;;;;;;;5145402;27;19955;-69
2024/01/13 02:43:59;;;;;;;;;;;;;;;;;;5130403;27;19961;-70
2024/01/13 02:46:25;;;;;;;;;;;;;;;;;;5133729;27;20621;-70
2024/01/13 02:48:51;;;;;;;;;;;;;;;;;;5124263;27;19943;-70
2024/01/13 02:51:17;;;;;;;;;;;;;;;;;;5139338;27;19963;-71
2024/01/13 02:53:43;;;;;;;;;;;;;;;;;;5127555;27;19949;-71
2024/01/13 02:56:09;;;;;;;;;;;;;;;;;;5143796;27;20333;-71
2024/01/13 02:58:35;;;;;;;;;;;;;;;;;;5123560;27;20262;-71
2024/01/13 03:01:06;;;;;;;;;;;;;;;;;;5118293;28;19931;-71
2024/01/13 03:03:32;;;;;;;;;;;;;;;;;;5134781;27;19919;-71
2024/01/13 03:05:58;;;;;;;;;;;;;;;;;;5146637;27;19998;-71
2024/01/13 03:08:24;;;;;;;;;;;;;;;;;;5125099;27;19930;-71
2024/01/13 03:10:50;;;;;;;;;;;;;;;;;;5146829;27;20351;-71
2024/01/13 03:13:16;;;;;;;;;;;;;;;;;;5163167;27;20018;-71
2024/01/13 03:15:42;;;;;;;;;;;;;;;;;;5148529;27;20014;-71
2024/01/13 03:18:08;;;;;;;;;;;;;;;;;;5134757;27;19927;-71
2024/01/13 03:20:34;;;;;;;;;;;;;;;;;;5128358;27;20538;-71
2024/01/13 03:23:00;;;;;;;;;;;;;;;;;;5120661;27;20018;-70
2024/01/13 03:25:26;;;;;;;;;;;;;;;;;;5143705;27;20006;-70
2024/01/13 03:27:51;;;;;;;;;;;;;;;;;;5133536;27;19976;-70
2024/01/13 03:30:17;;;;;;;;;;;;;;;;;;5131724;27;20380;-70
2024/01/13 03:32:43;;;;;;;;;;;;;;;;;;5148643;27;19919;-71
2024/01/13 03:35:09;;;;;;;;;;;;;;;;;;5130860;27;20062;-71
2024/01/13 03:37:35;;;;;;;;;;;;;;;;;;5132225;27;19998;-71
2024/01/13 03:40:02;;;;;;;;;;;;;;;;;;5129883;27;20427;-71
2024/01/13 03:42:28;;;;;;;;;;;;;;;;;;5133870;27;20392;-71
2024/01/13 03:44:54;;;;;;;;;;;;;;;;;;5149946;27;19927;-69
2024/01/13 03:47:21;;;;;;;;;;;;;;;;;;5133954;27;19923;-70
2024/01/13 03:49:47;;;;;;;;;;;;;;;;;;5134906;27;19930;-70
2024/01/13 03:52:13;;;;;;;;;;;;;;;;;;5117346;27;20291;-70
2024/01/13 03:54:39;;;;;;;;;;;;;;;;;;5145818;27;19927;-70
2024/01/13 03:57:05;;;;;;;;;;;;;;;;;;5126842;27;19923;-70
2024/01/13 03:59:31;;;;;;;;;;;;;;;;;;5131675;27;20022;-71
2024/01/13 04:01:57;;;;;;;;;;;;;;;;;;5126300;27;19923;-71
2024/01/13 04:04:23;;;;;;;;;;;;;;;;;;5141748;27;20029;-71
2024/01/13 04:06:49;;;;;;;;;;;;;;;;;;5127377;27;19930;-71
2024/01/13 04:09:15;;;;;;;;;;;;;;;;;;5132499;27;20023;-71
2024/01/13 04:11:40;;;;;;;;;;;;;;;;;;5128513;27;19930;-70
2024/01/13 04:14:06;;;;;;;;;;;;;;;;;;5126315;27;20363;-71
2024/01/13 04:16:32;;;;;;;;;;;;;;;;;;5127175;27;19934;-71
2024/01/13 04:18:58;;;;;;;;;;;;;;;;;;5130421;27;19936;-70
2024/01/13 04:21:24;;;;;;;;;;;;;;;;;;5139883;27;19931;-70
2024/01/13 04:23:50;;;;;;;;;;;;;;;;;;5152114;27;19927;-70
2024/01/13 04:26:16;;;;;;;;;;;;;;;;;;5147036;27;19955;-69
2024/01/13 04:28:42;;;;;;;;;;;;;;;;;;5148932;27;19919;-69
2024/01/13 04:31:08;;;;;;;;;;;;;;;;;;5147132;27;19926;-71
2024/01/13 04:33:34;;;;;;;;;;;;;;;;;;5128393;27;19934;-70
2024/01/13 04:36:00;;;;;;;;;;;;;;;;;;5152209;27;19919;-71
2024/01/13 04:38:26;;;;;;;;;;;;;;;;;;5148817;27;19927;-71
2024/01/13 04:40:52;;;;;;;;;;;;;;;;;;5143620;27;20364;-70
2024/01/13 04:43:18;;;;;;;;;;;;;;;;;;5132775;27;19922;-70
2024/01/13 04:45:44;;;;;;;;;;;;;;;;;;5149391;27;19971;-71
2024/01/13 04:48:10;;;;;;;;;;;;;;;;;;5146192;27;19926;-71
2024/01/13 04:50:36;;;;;;;;;;;;;;;;;;5148488;27;19930;-71
2024/01/13 04:53:02;;;;;;;;;;;;;;;;;;5127831;27;20567;-70
2024/01/13 04:55:27;;;;;;;;;;;;;;;;;;5148004;27;19923;-71
2024/01/13 04:57:53;;;;;;;;;;;;;;;;;;5149384;27;19919;-71
2024/01/13 05:00:19;;;;;;;;;;;;;;;;;;5150781;27;19920;-71
2024/01/13 05:02:45;;;;;;;;;;;;;;;;;;5149977;27;19927;-71
2024/01/13 05:05:11;;;;;;;;;;;;;;;;;;5134570;27;20386;-71
2024/01/13 05:07:38;;;;;;;;;;;;;;;;;;5135197;27;19927;-71
2024/01/13 05:10:04;;;;;;;;;;;;;;;;;;5134135;27;19923;-71
2024/01/13 05:12:30;;;;;;;;;;;;;;;;;;5142928;27;19929;-71
2024/01/13 05:14:56;;;;;;;;;;;;;;;;;;5146242;27;20379;-71
2024/01/13 05:17:22;;;;;;;;;;;;;;;;;;5109840;27;19923;-71
2024/01/13 05:19:48;;;;;;;;;;;;;;;;;;5147335;27;19919;-71
2024/01/13 05:22:14;;;;;;;;;;;;;;;;;;5136397;27;19946;-71
2024/01/13 05:24:42;;;;;;;;;;;;;;;;;;5126283;27;19931;-71
2024/01/13 05:27:08;;;;;;;;;;;;;;;;;;5132778;27;20409;-71
2024/01/13 05:29:34;;;;;;;;;;;;;;;;;;5130721;27;19924;-70
2024/01/13 05:32:00;;;;;;;;;;;;;;;;;;5133155;27;19937;-71
2024/01/13 05:34:25;;;;;;;;;;;;;;;;;;5141685;27;19920;-71
2024/01/13 05:36:51;;;;;;;;;;;;;;;;;;5130763;27;19985;-71
2024/01/13 05:39:17;;;;;;;;;;;;;;;;;;5118769;27;19977;-71
2024/01/13 05:41:43;;;;;;;;;;;;;;;;;;5147987;27;19923;-71
2024/01/13 05:44:09;;;;;;;;;;;;;;;;;;5140811;27;20254;-71
2024/01/13 05:46:35;;;;;;;;;;;;;;;;;;5138934;27;19930;-71
2024/01/13 05:49:01;;;;;;;;;;;;;;;;;;5120909;27;19927;-70
2024/01/13 05:51:28;;;;;;;;;;;;;;;;;;5140612;27;19922;-69
2024/01/13 05:53:54;;;;;;;;;;;;;;;;;;5147721;27;19998;-69
2024/01/13 05:56:20;;;;;;;;;;;;;;;;;;5134190;27;20065;-70
2024/01/13 05:58:47;;;;;;;;;;;;;;;;;;5114927;28;20216;-70
2024/01/13 06:01:13;;;;;;;;;;;;;;;;;;5121169;28;19972;-70
2024/01/13 06:03:39;;;;;;;;;;;;;;;;;;5124616;28;19920;-71
2024/01/13 06:06:05;;;;;;;;;;;;;;;;;;5138543;27;19919;-71
2024/01/13 06:08:31;;;;;;;;;;;;;;;;;;5152757;27;19946;-71
2024/01/13 06:10:57;;;;;;;;;;;;;;;;;;5134245;27;19919;-70
2024/01/13 06:13:23;;;;;;;;;;;;;;;;;;5135421;27;19968;-71
2024/01/13 06:15:49;;;;;;;;;;;;;;;;;;5127074;27;19926;-71
2024/01/13 06:18:15;;;;;;;;;;;;;;;;;;5134102;27;19923;-70
2024/01/13 06:20:41;;;;;;;;;;;;;;;;;;5134162;27;20014;-70
2024/01/13 06:23:07;;;;;;;;;;;;;;;;;;5123052;27;20351;-70
2024/01/13 06:25:33;;;;;;;;;;;;;;;;;;5150996;27;20010;-70
2024/01/13 06:27:59;;;;;;;;;;;;;;;;;;5150542;27;19969;-70
2024/01/13 06:30:24;;;;;;;;;;;;;;;;;;5125058;27;20364;-70
2024/01/13 06:32:50;;;;;;;;;;;;;;;;;;5128120;27;19938;-70
2024/01/13 06:35:16;;;;;;;;;;;;;;;;;;5133009;27;19919;-70
2024/01/13 06:37:42;;;;;;;;;;;;;;;;;;5132809;27;20256;-71
2024/01/13 06:40:08;;;;;;;;;;;;;;;;;;5132880;27;19930;-71
2024/01/13 06:42:34;;;;;;;;;;;;;;;;;;5137511;27;19923;-70
2024/01/13 06:45:00;;;;;;;;;;;;;;;;;;5134474;27;20284;-70
2024/01/13 06:47:26;;;;;;;;;;;;;;;;;;5147111;27;19923;-70
2024/01/13 06:49:52;;;;;;;;;;;;;;;;;;5111088;27;19919;-69
2024/01/13 06:52:18;;;;;;;;;;;;;;;;;;5139960;27;19923;-69
2024/01/13 06:54:44;;;;;;;;;;;;;;;;;;5155091;27;19919;-70
2024/01/13 06:57:09;;;;;;;;;;;;;;;;;;5154893;27;19923;-70
2024/01/13 06:59:36;;;;;;;;;;;;;;;;;;5140561;27;20527;-70
2024/01/13 07:02:02;;;;;;;;;;;;;;;;;;5130084;27;19923;-70
2024/01/13 07:04:28;;;;;;;;;;;;;;;;;;5130010;27;20932;-70
2024/01/13 07:06:54;;;;;;;;;;;;;;;;;;5140457;27;19979;-70
2024/01/13 07:09:20;;;;;;;;;;;;;;;;;;5117489;27;19924;-70
2024/01/13 07:11:46;;;;;;;;;;;;;;;;;;5155523;27;20433;-70
2024/01/13 07:14:12;;;;;;;;;;;;;;;;;;5130886;27;19923;-71
2024/01/13 07:16:38;;;;;;;;;;;;;;;;;;5131373;27;20380;-70
2024/01/13 07:19:05;;;;;;;;;;;;;;;;;;5129530;27;19923;-70
2024/01/13 07:21:31;;;;;;;;;;;;;;;;;;5140920;27;19934;-69
2024/01/13 07:23:57;;;;;;;;;;;;;;;;;;5119387;27;19947;-70
2024/01/13 07:26:23;;;;;;;;;;;;;;;;;;5127380;27;19923;-71
2024/01/13 07:28:49;;;;;;;;;;;;;;;;;;5129888;27;19968;-70
2024/01/13 07:31:15;;;;;;;;;;;;;;;;;;5130734;27;20309;-70
2024/01/13 07:33:41;;;;;;;;;;;;;;;;;;5109191;27;19927;-71
2024/01/13 07:36:07;;;;;;;;;;;;;;;;;;5130046;27;20330;-71
2024/01/13 07:38:33;;;;;;;;;;;;;;;;;;5123080;27;19920;-71
2024/01/13 07:40:59;;;;;;;;;;;;;;;;;;5127301;27;19919;-71
2024/01/13 07:43:25;;;;;;;;;;;;;;;;;;5133292;27;19919;-71
2024/01/13 07:45:51;;;;;;;;;;;;;;;;;;5104661;28;19924;-71
2024/01/13 07:48:17;;;;;;;;;;;;;;;;;;5126828;27;19923;-71
2024/01/13 07:50:43;;;;;;;;;;;;;;;;;;5117139;27;19920;-71
2024/01/13 07:53:09;;;;;;;;;;;;;;;;;;5121622;27;19923;-71
2024/01/13 07:55:35;;;;;;;;;;;;;;;;;;5141575;27;19976;-71
2024/01/13 07:58:01;;;;;;;;;;;;;;;;;;5147590;27;19919;-70
2024/01/13 08:00:27;;;;;;;;;;;;;;;;;;5127277;27;19980;-71
2024/01/13 08:02:53;;;;;;;;;;;;;;;;;;5148355;27;20366;-71
2024/01/13 08:05:19;;;;;;;;;;;;;;;;;;5152133;27;19930;-71
2024/01/13 08:07:45;;;;;;;;;;;;;;;;;;5145703;27;19919;-71
2024/01/13 08:10:11;;;;;;;;;;;;;;;;;;5148810;27;19923;-71
2024/01/13 08:12:37;;;;;;;;;;;;;;;;;;5139071;27;20018;-71
2024/01/13 08:15:03;;;;;;;;;;;;;;;;;;5140288;27;20289;-71
2024/01/13 08:17:29;;;;;;;;;;;;;;;;;;5142218;27;19949;-70
2024/01/13 08:19:55;;;;;;;;;;;;;;;;;;5129697;27;19930;-71
2024/01/13 08:22:21;;;;;;;;;;;;;;;;;;5124092;27;19923;-70
2024/01/13 08:24:47;;;;;;;;;;;;;;;;;;5125944;27;19992;-71
2024/01/13 08:27:13;;;;;;;;;;;;;;;;;;5117919;27;20493;-71
2024/01/13 08:29:39;;;;;;;;;;;;;;;;;;5131387;27;19967;-69
2024/01/13 08:32:05;;;;;;;;;;;;;;;;;;5129753;27;20356;-69
2024/01/13 08:34:31;;;;;;;;;;;;;;;;;;5130868;27;19926;-69
2024/01/13 08:36:57;;;;;;;;;;;;;;;;;;5127299;27;19927;-69
2024/01/13 08:39:22;;;;;;;;;;;;;;;;;;5127580;27;19944;-69
2024/01/13 08:41:48;;;;;;;;;;;;;;;;;;5140026;27;19951;-69
2024/01/13 08:44:15;;;;;;;;;;;;;;;;;;5121762;27;20303;-67
2024/01/13 08:46:41;;;;;;;;;;;;;;;;;;5141563;27;19925;-68
2024/01/13 08:49:08;;;;;;;;;;;;;;;;;;5144653;27;19925;-68
2024/01/13 08:51:34;;;;;;;;;;;;;;;;;;5120444;27;19931;-68
2024/01/13 08:54:00;;;;;;;;;;;;;;;;;;5118532;27;19951;-68
2024/01/13 08:56:26;;;;;;;;;;;;;;;;;;5129410;27;19919;-68
2024/01/13 08:58:52;;;;;;;;;;;;;;;;;;5128770;27;19941;-68
2024/01/13 09:01:18;;;;;;;;;;;;;;;;;;5110198;27;19983;-68
2024/01/13 09:03:45;;;;;;;;;;;;;;;;;;5149723;27;20333;-68
2024/01/13 09:06:11;;;;;;;;;;;;;;;;;;5137987;27;19924;-68
2024/01/13 09:08:38;;;;;;;;;;;;;;;;;;5113436;27;19931;-68
2024/01/13 09:11:04;;;;;;;;;;;;;;;;;;5117690;27;19928;-69
2024/01/13 09:13:30;;;;;;;;;;;;;;;;;;5104692;27;19923;-69
2024/01/13 09:15:56;;;;;;;;;;;;;;;;;;5118795;27;19927;-69
2024/01/13 09:18:22;;;;;;;;;;;;;;;;;;5130213;27;19926;-69
2024/01/13 09:20:48;;;;;;;;;;;;;;;;;;5112884;27;19935;-69
2024/01/13 09:23:14;;;;;;;;;;;;;;;;;;5118351;27;19931;-69
2024/01/13 09:25:40;;;;;;;;;;;;;;;;;;5126648;27;19995;-69
2024/01/13 09:28:06;;;;;;;;;;;;;;;;;;5120177;27;20356;-69
2024/01/13 09:30:32;;;;;;;;;;;;;;;;;;5132821;27;19958;-69
2024/01/13 09:32:58;;;;;;;;;;;;;;;;;;5129646;27;20349;-69
2024/01/13 09:35:24;;;;;;;;;;;;;;;;;;5104219;27;19954;-69
2024/01/13 09:37:50;;;;;;;;;;;;;;;;;;5105544;27;19923;-69
2024/01/13 09:40:18;;;;;;;;;;;;;;;;;;5146073;27;20415;-68
2024/01/13 09:42:44;;;;;;;;;;;;;;;;;;5113167;27;19935;-69
2024/01/13 09:45:09;;;;;;;;;;;;;;;;;;5123425;27;19926;-69
2024/01/13 09:47:35;;;;;;;;;;;;;;;;;;5111900;27;19962;-69
2024/01/13 09:50:04;;;;;;;;;;;;;;;;;;5127275;27;19958;-69
2024/01/13 09:52:29;;;;;;;;;;;;;;;;;;5148934;27;19941;-68
2024/01/13 09:54:55;;;;;;;;;;;;;;;;;;5125398;27;19923;-68
2024/01/13 09:57:21;;;;;;;;;;;;;;;;;;5129923;27;19963;-68
2024/01/13 09:59:47;;;;;;;;;;;;;;;;;;5138001;27;19923;-68
2024/01/13 10:02:13;;;;;;;;;;;;;;;;;;5138946;27;20432;-69
2024/01/13 10:04:40;;;;;;;;;;;;;;;;;;5108549;27;19924;-69
2024/01/13 10:07:06;;;;;;;;;;;;;;;;;;5128788;27;20279;-69
2024/01/13 10:09:32;;;;;;;;;;;;;;;;;;5131152;27;19926;-69
2024/01/13 10:11:58;;;;;;;;;;;;;;;;;;5127547;27;19937;-69
2024/01/13 10:14:24;;;;;;;;;;;;;;;;;;5133701;27;19919;-69
2024/01/13 10:16:50;;;;;;;;;;;;;;;;;;5133518;27;20234;-69
2024/01/13 10:19:15;;;;;;;;;;;;;;;;;;5115647;27;19926;-69
2024/01/13 10:21:42;;;;;;;;;;;;;;;;;;5132138;27;20026;-69
2024/01/13 10:24:08;;;;;;;;;;;;;;;;;;5143946;27;20410;-69
2024/01/13 10:26:34;;;;;;;;;;;;;;;;;;5128226;27;19923;-69
2024/01/13 10:29:00;;;;;;;;;;;;;;;;;;5126775;27;20002;-69
2024/01/13 10:31:26;;;;;;;;;;;;;;;;;;5133614;27;20360;-69
2024/01/13 10:33:52;;;;;;;;;;;;;;;;;;5129025;27;20274;-69
2024/01/13 10:36:18;;;;;;;;;;;;;;;;;;5143637;27;19931;-67
2024/01/13 10:38:44;;;;;;;;;;;;;;;;;;5135891;27;19971;-68
2024/01/13 10:41:10;;;;;;;;;;;;;;;;;;5143462;27;19919;-68
2024/01/13 10:43:36;;;;;;;;;;;;;;;;;;5130215;27;19926;-68
2024/01/13 10:46:02;;;;;;;;;;;;;;;;;;5138655;27;19978;-69
2024/01/13 10:48:28;;;;;;;;;;;;;;;;;;5151495;27;19923;-68
2024/01/13 10:50:54;;;;;;;;;;;;;;;;;;5135850;27;20310;-68
2024/01/13 10:53:19;;;;;;;;;;;;;;;;;;5135446;27;19919;-68
2024/01/13 10:55:45;;;;;;;;;;;;;;;;;;5147272;27;19923;-68
2024/01/13 10:58:11;;;;;;;;;;;;;;;;;;5134158;27;19969;-68
2024/01/13 11:00:37;;;;;;;;;;;;;;;;;;5114991;27;20275;-68
2024/01/13 11:03:04;;;;;;;;;;;;;;;;;;5131029;27;19923;-69
2024/01/13 11:05:30;;;;;;;;;;;;;;;;;;5147346;27;19946;-69
2024/01/13 11:07:55;;;;;;;;;;;;;;;;;;5144137;27;19926;-69
2024/01/13 11:10:21;;;;;;;;;;;;;;;;;;5114767;27;19920;-69
2024/01/13 11:12:47;;;;;;;;;;;;;;;;;;5126514;27;20155;-69
2024/01/13 11:15:13;;;;;;;;;;;;;;;;;;5147893;27;20034;-69
2024/01/13 11:17:39;;;;;;;;;;;;;;;;;;5133365;27;19919;-68
2024/01/13 11:20:05;;;;;;;;;;;;;;;;;;5126886;27;19920;-68
2024/01/13 11:22:31;;;;;;;;;;;;;;;;;;5141735;27;19927;-68
2024/01/13 11:24:57;;;;;;;;;;;;;;;;;;5138102;27;20349;-68
2024/01/13 11:27:23;;;;;;;;;;;;;;;;;;5132694;27;19931;-69
2024/01/13 11:29:49;;;;;;;;;;;;;;;;;;5131461;27;19923;-69
2024/01/13 11:32:15;;;;;;;;;;;;;;;;;;5157905;27;19969;-69
2024/01/13 11:34:41;;;;;;;;;;;;;;;;;;5133344;27;20313;-69
2024/01/13 11:37:10;;;;;;;;;;;;;;;;;;5131959;27;19980;-69
2024/01/13 11:39:36;;;;;;;;;;;;;;;;;;5127446;27;19996;-69
2024/01/13 11:42:03;;;;;;;;;;;;;;;;;;5109311;27;19931;-68
2024/01/13 11:44:28;;;;;;;;;;;;;;;;;;5141879;27;19919;-69
2024/01/13 11:46:54;;;;;;;;;;;;;;;;;;5114021;27;20037;-69
2024/01/13 11:49:20;;;;;;;;;;;;;;;;;;5125354;27;20403;-68
2024/01/13 11:51:46;;;;;;;;;;;;;;;;;;5123828;27;19924;-68
2024/01/13 11:54:12;;;;;;;;;;;;;;;;;;5136324;27;19965;-68
2024/01/13 11:56:38;;;;;;;;;;;;;;;;;;5103584;27;20059;-68
2024/01/13 11:59:04;;;;;;;;;;;;;;;;;;5132759;27;19947;-68
2024/01/13 12:01:30;;;;;;;;;;;;;;;;;;5123532;27;20018;-66
2024/01/13 12:03:56;;;;;;;;;;;;;;;;;;5132970;27;20010;-67
2024/01/13 12:06:22;;;;;;;;;;;;;;;;;;5132565;27;20030;-67
2024/01/13 12:08:47;;;;;;;;;;;;;;;;;;5144099;27;19927;-67
2024/01/13 12:11:13;;;;;;;;;;;;;;;;;;5143087;27;19927;-67
2024/01/13 12:13:39;;;;;;;;;;;;;;;;;;5139964;27;20387;-67
2024/01/13 12:16:05;;;;;;;;;;;;;;;;;;5148987;27;19924;-67
2024/01/13 12:18:32;;;;;;;;;;;;;;;;;;5129514;27;20386;-66
2024/01/13 12:20:58;;;;;;;;;;;;;;;;;;5134503;27;19924;-67
2024/01/13 12:23:24;;;;;;;;;;;;;;;;;;5145675;27;20724;-67
2024/01/13 12:25:50;;;;;;;;;;;;;;;;;;5149507;27;19934;-67
2024/01/13 12:28:16;;;;;;;;;;;;;;;;;;5112693;27;19923;-67
2024/01/13 12:30:42;;;;;;;;;;;;;;;;;;5138107;27;19973;-67
2024/01/13 12:33:08;;;;;;;;;;;;;;;;;;5127604;27;19930;-67
2024/01/13 12:35:34;;;;;;;;;;;;;;;;;;5134867;27;20326;-67
2024/01/13 12:38:00;;;;;;;;;;;;;;;;;;5153993;27;19987;-67
2024/01/13 12:40:26;;;;;;;;;;;;;;;;;;5145051;27;20014;-67
2024/01/13 12:42:52;;;;;;;;;;;;;;;;;;5153545;27;20018;-67
2024/01/13 12:45:18;;;;;;;;;;;;;;;;;;5126746;27;20307;-67
2024/01/13 12:47:44;;;;;;;;;;;;;;;;;;5129069;27;20407;-67
2024/01/13 12:50:10;;;;;;;;;;;;;;;;;;5144531;27;20422;-67
2024/01/13 12:52:36;;;;;;;;;;;;;;;;;;5122848;27;19927;-67
2024/01/13 12:55:02;;;;;;;;;;;;;;;;;;5134562;27;19923;-67
2024/01/13 12:57:28;;;;;;;;;;;;;;;;;;5141003;27;19930;-67
2024/01/13 12:59:54;;;;;;;;;;;;;;;;;;5124698;27;19966;-67
2024/01/13 13:02:20;;;;;;;;;;;;;;;;;;5134541;27;19956;-68
2024/01/13 13:04:46;;;;;;;;;;;;;;;;;;5120743;27;20309;-67
2024/01/13 13:07:12;;;;;;;;;;;;;;;;;;5125503;27;19974;-67
2024/01/13 13:09:39;;;;;;;;;;;;;;;;;;5143350;27;20539;-67
2024/01/13 13:12:05;;;;;;;;;;;;;;;;;;5099769;27;19963;-67
2024/01/13 13:14:30;;;;;;;;;;;;;;;;;;5129548;27;20415;-67
2024/01/13 13:16:56;;;;;;;;;;;;;;;;;;5145117;27;19955;-67
2024/01/13 13:19:25;;;;;;;;;;;;;;;;;;5137213;27;19969;-67
2024/01/13 13:21:51;;;;;;;;;;;;;;;;;;5140599;27;19930;-67
2024/01/13 13:24:16;;;;;;;;;;;;;;;;;;5158250;27;19920;-67
2024/01/13 13:26:42;;;;;;;;;;;;;;;;;;5144549;27;19923;-67
2024/01/13 13:29:08;;;;;;;;;;;;;;;;;;5141101;27;20441;-67
2024/01/13 13:31:34;;;;;;;;;;;;;;;;;;5136332;27;19926;-67
2024/01/13 13:34:00;;;;;;;;;;;;;;;;;;5122415;27;19920;-67
2024/01/13 13:36:26;;;;;;;;;;;;;;;;;;5132483;27;19923;-67
2024/01/13 13:38:52;;;;;;;;;;;;;;;;;;5141538;27;19930;-67
2024/01/13 13:41:18;;;;;;;;;;;;;;;;;;5149640;27;19935;-67
2024/01/13 13:43:44;;;;;;;;;;;;;;;;;;5125343;27;19919;-67
2024/01/13 13:46:10;;;;;;;;;;;;;;;;;;5136986;27;19966;-68
2024/01/13 13:48:36;;;;;;;;;;;;;;;;;;5128461;27;20391;-67
2024/01/13 13:51:02;;;;;;;;;;;;;;;;;;5141173;27;20018;-67
2024/01/13 13:53:28;;;;;;;;;;;;;;;;;;5136932;27;20018;-67
2024/01/13 13:55:54;;;;;;;;;;;;;;;;;;5117762;27;19923;-67
2024/01/13 13:58:20;;;;;;;;;;;;;;;;;;5127810;27;20062;-67
2024/01/13 14:00:46;;;;;;;;;;;;;;;;;;5131375;27;20356;-67
2024/01/13 14:03:12;;;;;;;;;;;;;;;;;;5131183;27;19924;-67
2024/01/13 14:05:38;;;;;;;;;;;;;;;;;;5131973;27;19934;-67
2024/01/13 14:08:04;;;;;;;;;;;;;;;;;;5151438;27;19919;-67
2024/01/13 14:10:30;;;;;;;;;;;;;;;;;;5133381;27;20399;-68
2024/01/13 14:12:56;;;;;;;;;;;;;;;;;;5148793;27;19927;-67
2024/01/13 14:15:24;;;;;;;;;;;;;;;;;;5146008;27;20368;-67
2024/01/13 14:17:50;;;;;;;;;;;;;;;;;;5139094;27;20330;-67
2024/01/13 14:20:16;;;;;;;;;;;;;;;;;;5145579;27;20033;-67
2024/01/13 14:22:42;;;;;;;;;;;;;;;;;;5131626;27;20043;-67
2024/01/13 14:25:08;;;;;;;;;;;;;;;;;;5120563;27;19975;-67
2024/01/13 14:27:35;;;;;;;;;;;;;;;;;;5111447;22;19927;-68
2024/01/13 14:30:01;;;;;;;;;;;;;;;;;;5086467;28;19927;-67
2024/01/13 14:32:26;;;;;;;;;;;;;;;;;;5067768;28;19928;-68
2024/01/13 14:34:52;;;;;;;;;;;;;;;;;;5067715;28;19920;-68
2024/01/13 14:37:18;;;;;;;;;;;;;;;;;;5081709;28;20410;-68
2024/01/13 14:39:44;;;;;;;;;;;;;;;;;;5084408;28;19924;-68
2024/01/13 14:42:10;;;;;;;;;;;;;;;;;;5076759;28;20348;-67
2024/01/13 14:44:36;;;;;;;;;;;;;;;;;;5063857;28;19928;-68
2024/01/13 14:47:03;;;;;;;;;;;;;;;;;;5074858;28;19928;-68
2024/01/13 14:49:29;;;;;;;;;;;;;;;;;;5065200;28;19920;-68
2024/01/13 14:51:55;;;;;;;;;;;;;;;;;;5085091;28;20069;-68
2024/01/13 14:54:20;;;;;;;;;;;;;;;;;;5091918;28;19927;-68
2024/01/13 14:56:47;;;;;;;;;;;;;;;;;;5073990;28;19928;-68
2024/01/13 14:59:13;;;;;;;;;;;;;;;;;;5095472;28;19928;-69
2024/01/13 15:01:39;;;;;;;;;;;;;;;;;;5086104;28;19926;-68
2024/01/13 15:04:05;;;;;;;;;;;;;;;;;;5083416;28;19935;-69
2024/01/13 15:06:31;;;;;;;;;;;;;;;;;;5092298;28;20258;-68
2024/01/13 15:08:57;;;;;;;;;;;;;;;;;;5097973;28;20023;-68
2024/01/13 15:11:23;;;;;;;;;;;;;;;;;;5085594;28;19927;-69
2024/01/13 15:13:49;;;;;;;;;;;;;;;;;;5089403;28;19931;-68
2024/01/13 15:16:15;;;;;;;;;;;;;;;;;;5083229;28;19920;-68
2024/01/13 15:18:42;;;;;;;;;;;;;;;;;;5083376;28;19949;-69
2024/01/13 15:21:08;;;;;;;;;;;;;;;;;;5088187;28;19920;-68
2024/01/13 15:23:34;;;;;;;;;;;;;;;;;;5090350;28;19927;-68
2024/01/13 15:26:00;;;;;;;;;;;;;;;;;;5075787;28;20362;-68
2024/01/13 15:28:26;;;;;;;;;;;;;;;;;;5064650;28;19942;-68
2024/01/13 15:30:52;;;;;;;;;;;;;;;;;;5066336;28;19924;-68
2024/01/13 15:33:18;;;;;;;;;;;;;;;;;;5067024;28;19987;-68
2024/01/13 15:35:44;;;;;;;;;;;;;;;;;;5069614;28;20434;-68
2024/01/13 15:38:13;;;;;;;;;;;;;;;;;;5086121;28;19963;-68
2024/01/13 15:40:39;;;;;;;;;;;;;;;;;;5080110;28;19997;-69
2024/01/13 15:43:05;;;;;;;;;;;;;;;;;;5058017;28;20019;-68
2024/01/13 15:45:31;;;;;;;;;;;;;;;;;;5081021;28;19928;-68
2024/01/13 15:47:57;;;;;;;;;;;;;;;;;;5079263;28;20260;-68
2024/01/13 15:50:23;;;;;;;;;;;;;;;;;;5087015;28;19920;-68
2024/01/13 15:52:49;;;;;;;;;;;;;;;;;;5083863;28;20547;-69
2024/01/13 15:55:16;;;;;;;;;;;;;;;;;;5086882;28;19924;-69
2024/01/13 15:57:42;;;;;;;;;;;;;;;;;;5087545;28;19924;-69
2024/01/13 16:00:08;;;;;;;;;;;;;;;;;;5090049;28;20043;-69
2024/01/13 16:02:34;;;;;;;;;;;;;;;;;;5084861;28;19924;-69
2024/01/13 16:05:00;;;;;;;;;;;;;;;;;;5089617;28;19927;-69
2024/01/13 16:07:25;;;;;;;;;;;;;;;;;;5063796;28;19924;-69
2024/01/13 16:09:52;;;;;;;;;;;;;;;;;;5083728;28;19928;-69
2024/01/13 16:12:20;;;;;;;;;;;;;;;;;;5088306;28;20282;-68
2024/01/13 16:14:46;;;;;;;;;;;;;;;;;;5067973;28;19920;-69
2024/01/13 16:17:11;;;;;;;;;;;;;;;;;;5085025;28;20019;-69
2024/01/13 16:19:37;;;;;;;;;;;;;;;;;;5052597;28;19935;-69
2024/01/13 16:22:04;;;;;;;;;;;;;;;;;;5085699;28;19924;-69
2024/01/13 16:24:30;;;;;;;;;;;;;;;;;;5081507;28;21242;-69
2024/01/13 16:26:56;;;;;;;;;;;;;;;;;;5076831;28;19924;-69
2024/01/13 16:29:23;;;;;;;;;;;;;;;;;;5085092;28;20440;-69
2024/01/13 16:31:49;;;;;;;;;;;;;;;;;;5084433;28;20008;-69
2024/01/13 16:34:15;;;;;;;;;;;;;;;;;;5060377;28;21015;-69
2024/01/13 16:36:40;;;;;;;;;;;;;;;;;;5068369;28;20007;-71